sensor_id;sensor_type;location;lat;lon;timestamp;pressure;altitude;pressure_sealevel;temperature;humidity
63088;BME280;49173;43.164;27.786;2023-12-20T00:01:15;100864.09;;;4.22;91.63
63088;BME280;49173;43.164;27.786;2023-12-20T00:03:41;100869.53;;;4.17;91.94
63088;BME280;49173;43.164;27.786;2023-12-20T00:06:08;100857.97;;;4.20;92.92
63088;BME280;49173;43.164;27.786;2023-12-20T00:08:34;100859.66;;;4.22;93.99
63088;BME280;49173;43.164;27.786;2023-12-20T00:11:00;100855.28;;;4.20;93.90
63088;BME280;49173;43.164;27.786;2023-12-20T00:13:26;100854.38;;;4.21;93.57
63088;BME280;49173;43.164;27.786;2023-12-20T00:15:51;100861.47;;;4.20;93.42
63088;BME280;49173;43.164;27.786;2023-12-20T00:18:17;100857.13;;;4.18;93.45
63088;BME280;49173;43.164;27.786;2023-12-20T00:20:43;100853.59;;;4.17;93.19
63088;BME280;49173;43.164;27.786;2023-12-20T00:23:08;100847.50;;;4.12;93.35
63088;BME280;49173;43.164;27.786;2023-12-20T00:25:34;100840.59;;;4.03;93.31
63088;BME280;49173;43.164;27.786;2023-12-20T00:28:01;100846.81;;;4.02;93.90
63088;BME280;49173;43.164;27.786;2023-12-20T00:30:28;100835.31;;;4.02;93.44
63088;BME280;49173;43.164;27.786;2023-12-20T00:32:55;100836.19;;;4.02;93.19
63088;BME280;49173;43.164;27.786;2023-12-20T00:35:20;100832.66;;;4.02;93.06
63088;BME280;49173;43.164;27.786;2023-12-20T00:37:46;100829.09;;;4.01;92.84
63088;BME280;49173;43.164;27.786;2023-12-20T00:40:12;100826.38;;;4.06;92.24
63088;BME280;49173;43.164;27.786;2023-12-20T00:42:38;100822.00;;;4.03;92.24
63088;BME280;49173;43.164;27.786;2023-12-20T00:45:04;100818.44;;;4.04;92.33
63088;BME280;49173;43.164;27.786;2023-12-20T00:47:31;100813.16;;;4.03;91.98
63088;BME280;49173;43.164;27.786;2023-12-20T00:49:57;100815.81;;;4.01;91.90
63088;BME280;49173;43.164;27.786;2023-12-20T00:52:24;100815.81;;;4.01;92.25
63088;BME280;49173;43.164;27.786;2023-12-20T00:54:50;100812.31;;;4.01;91.84
63088;BME280;49173;43.164;27.786;2023-12-20T00:57:16;100814.00;;;4.05;91.98
63088;BME280;49173;43.164;27.786;2023-12-20T00:59:42;100807.72;;;4.07;92.36
63088;BME280;49173;43.164;27.786;2023-12-20T01:02:07;100797.97;;;4.09;92.28
63088;BME280;49173;43.164;27.786;2023-12-20T01:04:34;100801.50;;;4.08;92.46
63088;BME280;49173;43.164;27.786;2023-12-20T01:07:00;100803.28;;;4.09;92.64
63088;BME280;49173;43.164;27.786;2023-12-20T01:09:26;100789.13;;;4.09;92.54
63088;BME280;49173;43.164;27.786;2023-12-20T01:11:53;100792.66;;;4.08;92.63
63088;BME280;49173;43.164;27.786;2023-12-20T01:14:18;100797.09;;;4.09;92.17
63088;BME280;49173;43.164;27.786;2023-12-20T01:16:44;100784.75;;;4.06;92.06
63088;BME280;49173;43.164;27.786;2023-12-20T01:19:28;100782.97;;;4.07;91.83
63088;BME280;49173;43.164;27.786;2023-12-20T01:21:55;100785.66;;;4.05;91.57
63088;BME280;49173;43.164;27.786;2023-12-20T01:24:21;100782.09;;;4.06;91.82
63088;BME280;49173;43.164;27.786;2023-12-20T01:26:47;100776.84;;;4.03;91.80
63088;BME280;49173;43.164;27.786;2023-12-20T01:29:12;100779.63;;;3.97;91.93
63088;BME280;49173;43.164;27.786;2023-12-20T01:31:40;100772.63;;;3.95;90.74
63088;BME280;49173;43.164;27.786;2023-12-20T01:34:06;100768.28;;;3.91;90.49
63088;BME280;49173;43.164;27.786;2023-12-20T01:36:32;100763.91;;;3.88;90.97
63088;BME280;49173;43.164;27.786;2023-12-20T01:38:58;100756.78;;;3.90;91.04
63088;BME280;49173;43.164;27.786;2023-12-20T01:41:24;100757.69;;;3.89;91.25
63088;BME280;49173;43.164;27.786;2023-12-20T01:43:49;100755.94;;;3.86;91.23
63088;BME280;49173;43.164;27.786;2023-12-20T01:46:16;100757.78;;;3.84;91.56
63088;BME280;49173;43.164;27.786;2023-12-20T01:48:42;100755.13;;;3.84;91.79
63088;BME280;49173;43.164;27.786;2023-12-20T01:51:09;100740.94;;;3.85;91.11
63088;BME280;49173;43.164;27.786;2023-12-20T01:53:36;100735.72;;;3.82;91.40
63088;BME280;49173;43.164;27.786;2023-12-20T01:56:21;100736.63;;;3.81;91.19
63088;BME280;49173;43.164;27.786;2023-12-20T01:58:47;100723.44;;;3.77;91.20
63088;BME280;49173;43.164;27.786;2023-12-20T02:01:13;100723.50;;;3.74;91.38
63088;BME280;49173;43.164;27.786;2023-12-20T02:03:41;100719.94;;;3.75;91.54
63088;BME280;49173;43.164;27.786;2023-12-20T02:06:07;100713.72;;;3.76;91.45
63088;BME280;49173;43.164;27.786;2023-12-20T02:08:34;100708.34;;;3.79;91.64
63088;BME280;49173;43.164;27.786;2023-12-20T02:11:00;100697.72;;;3.79;91.60
63088;BME280;49173;43.164;27.786;2023-12-20T02:13:26;100692.41;;;3.79;91.27
63088;BME280;49173;43.164;27.786;2023-12-20T02:15:54;100693.28;;;3.79;91.27
63088;BME280;49173;43.164;27.786;2023-12-20T02:18:21;100695.09;;;3.77;91.96
63088;BME280;49173;43.164;27.786;2023-12-20T02:20:47;100680.09;;;3.76;91.99
63088;BME280;49173;43.164;27.786;2023-12-20T02:23:12;100677.47;;;3.75;92.57
63088;BME280;49173;43.164;27.786;2023-12-20T02:25:38;100674.00;;;3.71;93.08
63088;BME280;49173;43.164;27.786;2023-12-20T02:28:05;100662.47;;;3.72;93.43
63088;BME280;49173;43.164;27.786;2023-12-20T02:30:32;100665.91;;;3.77;93.76
63088;BME280;49173;43.164;27.786;2023-12-20T02:32:59;100673.81;;;3.79;93.80
63088;BME280;49173;43.164;27.786;2023-12-20T02:35:25;100663.16;;;3.80;94.19
63088;BME280;49173;43.164;27.786;2023-12-20T02:37:51;100657.84;;;3.82;94.25
63088;BME280;49173;43.164;27.786;2023-12-20T02:40:17;100659.53;;;3.84;94.46
63088;BME280;49173;43.164;27.786;2023-12-20T02:42:43;100656.81;;;3.88;94.62
63088;BME280;49173;43.164;27.786;2023-12-20T02:45:09;100649.66;;;3.91;94.62
63088;BME280;49173;43.164;27.786;2023-12-20T02:47:35;100649.63;;;3.93;94.72
63088;BME280;49173;43.164;27.786;2023-12-20T02:50:01;100643.41;;;3.94;95.06
63088;BME280;49173;43.164;27.786;2023-12-20T02:52:28;100646.88;;;3.97;94.98
63088;BME280;49173;43.164;27.786;2023-12-20T02:54:54;100645.94;;;3.98;94.80
63088;BME280;49173;43.164;27.786;2023-12-20T02:57:20;100645.03;;;3.99;94.93
63088;BME280;49173;43.164;27.786;2023-12-20T02:59:46;100638.81;;;4.02;93.96
63088;BME280;49173;43.164;27.786;2023-12-20T03:02:12;100638.81;;;4.02;93.92
63088;BME280;49173;43.164;27.786;2023-12-20T03:04:38;100645.88;;;4.01;94.40
63088;BME280;49173;43.164;27.786;2023-12-20T03:07:04;100642.31;;;4.02;93.89
63088;BME280;49173;43.164;27.786;2023-12-20T03:09:30;100642.31;;;4.02;93.19
63088;BME280;49173;43.164;27.786;2023-12-20T03:11:56;100657.34;;;4.03;93.10
63088;BME280;49173;43.164;27.786;2023-12-20T03:14:22;100652.09;;;4.02;92.94
63088;BME280;49173;43.164;27.786;2023-12-20T03:16:51;100644.22;;;3.97;92.26
63088;BME280;49173;43.164;27.786;2023-12-20T03:19:18;100649.56;;;3.96;91.84
63088;BME280;49173;43.164;27.786;2023-12-20T03:21:45;100647.91;;;3.90;91.78
63088;BME280;49173;43.164;27.786;2023-12-20T03:24:11;100641.78;;;3.88;91.59
63088;BME280;49173;43.164;27.786;2023-12-20T03:26:36;100638.22;;;3.88;91.28
63088;BME280;49173;43.164;27.786;2023-12-20T03:29:02;100637.44;;;3.84;90.98
63088;BME280;49173;43.164;27.786;2023-12-20T03:31:28;100637.78;;;3.69;91.29
63088;BME280;49173;43.164;27.786;2023-12-20T03:33:54;100638.72;;;3.66;91.30
63088;BME280;49173;43.164;27.786;2023-12-20T03:36:20;100634.34;;;3.64;91.57
63088;BME280;49173;43.164;27.786;2023-12-20T03:38:46;100635.31;;;3.61;90.36
63088;BME280;49173;43.164;27.786;2023-12-20T03:41:11;100630.09;;;3.56;90.13
63088;BME280;49173;43.164;27.786;2023-12-20T03:43:37;100624.97;;;3.49;90.33
63088;BME280;49173;43.164;27.786;2023-12-20T03:46:03;100627.75;;;3.43;90.12
63088;BME280;49173;43.164;27.786;2023-12-20T03:48:32;100620.91;;;3.33;90.74
63088;BME280;49173;43.164;27.786;2023-12-20T03:50:58;100629.72;;;3.33;90.89
63088;BME280;49173;43.164;27.786;2023-12-20T03:53:24;100628.84;;;3.31;90.82
63088;BME280;49173;43.164;27.786;2023-12-20T03:55:50;100626.38;;;3.25;91.13
63088;BME280;49173;43.164;27.786;2023-12-20T03:58:15;100620.31;;;3.17;91.70
63088;BME280;49173;43.164;27.786;2023-12-20T04:00:41;100621.34;;;3.10;91.98
63088;BME280;49173;43.164;27.786;2023-12-20T04:03:07;100628.47;;;3.08;92.13
63088;BME280;49173;43.164;27.786;2023-12-20T04:05:33;100616.25;;;3.00;92.48
63088;BME280;49173;43.164;27.786;2023-12-20T04:08:17;100611.06;;;2.94;92.66
63088;BME280;49173;43.164;27.786;2023-12-20T04:10:43;100609.31;;;2.93;92.79
63088;BME280;49173;43.164;27.786;2023-12-20T04:13:10;100608.41;;;2.94;93.33
63088;BME280;49173;43.164;27.786;2023-12-20T04:15:42;100602.34;;;2.88;93.52
63088;BME280;49173;43.164;27.786;2023-12-20T04:18:08;100603.22;;;2.88;93.52
63088;BME280;49173;43.164;27.786;2023-12-20T04:20:34;100600.72;;;2.82;93.50
63088;BME280;49173;43.164;27.786;2023-12-20T04:22:59;100603.25;;;2.87;92.91
63088;BME280;49173;43.164;27.786;2023-12-20T04:25:25;100593.59;;;2.84;92.32
63088;BME280;49173;43.164;27.786;2023-12-20T04:27:51;100605.13;;;2.83;92.38
63088;BME280;49173;43.164;27.786;2023-12-20T04:30:17;100598.09;;;2.79;92.32
63088;BME280;49173;43.164;27.786;2023-12-20T04:32:43;100596.34;;;2.80;92.08
63088;BME280;49173;43.164;27.786;2023-12-20T04:35:09;100591.97;;;2.77;92.01
63088;BME280;49173;43.164;27.786;2023-12-20T04:37:35;100592.00;;;2.74;92.70
63088;BME280;49173;43.164;27.786;2023-12-20T04:40:01;100585.91;;;2.70;92.87
63088;BME280;49173;43.164;27.786;2023-12-20T04:42:27;100580.66;;;2.69;93.55
63088;BME280;49173;43.164;27.786;2023-12-20T04:44:53;100581.59;;;2.65;93.76
63088;BME280;49173;43.164;27.786;2023-12-20T04:47:19;100588.66;;;2.66;94.28
63088;BME280;49173;43.164;27.786;2023-12-20T04:49:45;100578.91;;;2.66;93.91
63088;BME280;49173;43.164;27.786;2023-12-20T04:52:10;100587.78;;;2.65;93.76
63088;BME280;49173;43.164;27.786;2023-12-20T04:54:36;100580.63;;;2.70;93.47
63088;BME280;49173;43.164;27.786;2023-12-20T04:57:21;100576.13;;;2.74;93.83
63088;BME280;49173;43.164;27.786;2023-12-20T04:59:47;100581.38;;;2.77;93.82
63088;BME280;49173;43.164;27.786;2023-12-20T05:02:13;100576.13;;;2.74;94.13
63088;BME280;49173;43.164;27.786;2023-12-20T05:04:38;100571.69;;;2.76;94.52
63088;BME280;49173;43.164;27.786;2023-12-20T05:07:04;100573.34;;;2.80;94.37
63088;BME280;49173;43.164;27.786;2023-12-20T05:09:30;100585.69;;;2.81;94.98
63088;BME280;49173;43.164;27.786;2023-12-20T05:11:56;100578.66;;;2.80;94.85
63088;BME280;49173;43.164;27.786;2023-12-20T05:14:40;100574.13;;;2.85;95.12
63088;BME280;49173;43.164;27.786;2023-12-20T05:17:06;100571.44;;;2.87;95.22
63088;BME280;49173;43.164;27.786;2023-12-20T05:19:32;100568.72;;;2.91;94.92
63088;BME280;49173;43.164;27.786;2023-12-20T05:22:01;100572.28;;;2.89;94.48
63088;BME280;49173;43.164;27.786;2023-12-20T05:24:27;100580.31;;;2.86;94.19
63088;BME280;49173;43.164;27.786;2023-12-20T05:26:53;100571.53;;;2.84;94.04
63088;BME280;49173;43.164;27.786;2023-12-20T05:29:19;100564.34;;;2.89;94.08
63088;BME280;49173;43.164;27.786;2023-12-20T05:31:45;100565.16;;;2.92;93.62
63088;BME280;49173;43.164;27.786;2023-12-20T05:34:11;100564.22;;;2.95;93.87
63088;BME280;49173;43.164;27.786;2023-12-20T05:36:37;100556.25;;;2.96;93.43
63088;BME280;49173;43.164;27.786;2023-12-20T05:39:23;100559.84;;;2.92;93.41
63088;BME280;49173;43.164;27.786;2023-12-20T05:41:49;100558.91;;;2.96;93.70
63088;BME280;49173;43.164;27.786;2023-12-20T05:44:14;100565.00;;;3.00;93.37
63088;BME280;49173;43.164;27.786;2023-12-20T05:46:40;100565.03;;;2.98;93.81
63088;BME280;49173;43.164;27.786;2023-12-20T05:49:06;100559.66;;;3.01;93.81
63088;BME280;49173;43.164;27.786;2023-12-20T05:51:32;100564.97;;;3.01;93.97
63088;BME280;49173;43.164;27.786;2023-12-20T05:53:58;100561.41;;;3.02;93.55
63088;BME280;49173;43.164;27.786;2023-12-20T05:56:24;100559.59;;;3.05;92.88
63088;BME280;49173;43.164;27.786;2023-12-20T05:58:50;100556.97;;;3.03;93.18
63088;BME280;49173;43.164;27.786;2023-12-20T06:01:16;100558.75;;;3.04;93.19
63088;BME280;49173;43.164;27.786;2023-12-20T06:03:43;100556.88;;;3.08;93.71
63088;BME280;49173;43.164;27.786;2023-12-20T06:06:09;100564.78;;;3.11;94.03
63088;BME280;49173;43.164;27.786;2023-12-20T06:08:36;100562.09;;;3.12;94.06
63088;BME280;49173;43.164;27.786;2023-12-20T06:11:02;100565.63;;;3.13;94.29
63088;BME280;49173;43.164;27.786;2023-12-20T06:13:28;100568.19;;;3.17;93.98
63088;BME280;49173;43.164;27.786;2023-12-20T06:15:54;100569.88;;;3.20;94.12
63088;BME280;49173;43.164;27.786;2023-12-20T06:18:21;100571.63;;;3.21;94.06
63088;BME280;49173;43.164;27.786;2023-12-20T06:20:46;100568.06;;;3.22;93.52
63088;BME280;49173;43.164;27.786;2023-12-20T06:23:12;100566.31;;;3.21;93.99
63088;BME280;49173;43.164;27.786;2023-12-20T06:25:38;100564.50;;;3.23;93.60
63088;BME280;49173;43.164;27.786;2023-12-20T06:28:26;100567.94;;;3.28;93.61
63088;BME280;49173;43.164;27.786;2023-12-20T06:30:54;100564.38;;;3.29;93.56
63088;BME280;49173;43.164;27.786;2023-12-20T06:33:23;100557.25;;;3.31;93.36
63088;BME280;49173;43.164;27.786;2023-12-20T06:35:54;100553.66;;;3.34;93.62
63088;BME280;49173;43.164;27.786;2023-12-20T06:38:23;100557.06;;;3.40;94.26
63088;BME280;49173;43.164;27.786;2023-12-20T06:40:53;100560.41;;;3.48;94.22
63088;BME280;49173;43.164;27.786;2023-12-20T06:43:20;100555.78;;;3.56;94.91
63088;BME280;49173;43.164;27.786;2023-12-20T06:45:54;100549.50;;;3.61;94.96
63088;BME280;49173;43.164;27.786;2023-12-20T06:48:23;100549.38;;;3.65;95.33
63088;BME280;49173;43.164;27.786;2023-12-20T06:50:59;100554.44;;;3.76;95.45
63088;BME280;49173;43.164;27.786;2023-12-20T06:53:25;100538.38;;;3.82;95.51
63088;BME280;49173;43.164;27.786;2023-12-20T06:55:54;100549.75;;;3.87;95.40
63088;BME280;49173;43.164;27.786;2023-12-20T06:58:33;100546.09;;;3.91;95.33
63088;BME280;49173;43.164;27.786;2023-12-20T07:01:01;100547.81;;;3.94;94.95
63088;BME280;49173;43.164;27.786;2023-12-20T07:03:32;100538.09;;;3.93;94.53
63088;BME280;49173;43.164;27.786;2023-12-20T07:05:58;100539.00;;;3.92;94.16
63088;BME280;49173;43.164;27.786;2023-12-20T07:08:45;100539.06;;;3.90;93.91
63088;BME280;49173;43.164;27.786;2023-12-20T07:11:13;100535.59;;;3.88;94.02
63088;BME280;49173;43.164;27.786;2023-12-20T07:13:42;100531.97;;;3.91;94.12
63088;BME280;49173;43.164;27.786;2023-12-20T07:16:11;100533.69;;;3.92;94.47
63088;BME280;49173;43.164;27.786;2023-12-20T07:18:44;100525.69;;;3.95;95.23
63088;BME280;49173;43.164;27.786;2023-12-20T07:21:13;100529.03;;;4.01;95.89
63088;BME280;49173;43.164;27.786;2023-12-20T07:23:39;100524.63;;;4.00;96.35
63088;BME280;49173;43.164;27.786;2023-12-20T07:26:08;100523.50;;;4.10;97.49
63088;BME280;49173;43.164;27.786;2023-12-20T07:28:42;100514.47;;;4.18;98.52
63088;BME280;49173;43.164;27.786;2023-12-20T07:31:11;100517.53;;;4.35;99.16
63088;BME280;49173;43.164;27.786;2023-12-20T07:33:40;100509.28;;;4.46;99.76
63088;BME280;49173;43.164;27.786;2023-12-20T07:36:09;100509.97;;;4.52;99.75
63088;BME280;49173;43.164;27.786;2023-12-20T07:38:39;100504.66;;;4.52;99.31
63088;BME280;49173;43.164;27.786;2023-12-20T07:41:09;100502.06;;;4.49;98.63
63088;BME280;49173;43.164;27.786;2023-12-20T07:43:38;100508.25;;;4.50;98.81
63088;BME280;49173;43.164;27.786;2023-12-20T07:46:09;100502.88;;;4.53;98.55
63088;BME280;49173;43.164;27.786;2023-12-20T07:48:41;100499.13;;;4.60;98.74
63088;BME280;49173;43.164;27.786;2023-12-20T07:51:11;100503.41;;;4.64;99.24
63088;BME280;49173;43.164;27.786;2023-12-20T07:53:38;100500.63;;;4.68;99.73
63088;BME280;49173;43.164;27.786;2023-12-20T07:56:25;100499.59;;;4.74;99.88
63088;BME280;49173;43.164;27.786;2023-12-20T07:58:52;100487.06;;;4.78;99.75
63088;BME280;49173;43.164;27.786;2023-12-20T08:01:18;100479.78;;;4.84;100.00
63088;BME280;49173;43.164;27.786;2023-12-20T08:04:05;100481.28;;;4.93;100.00
63088;BME280;49173;43.164;27.786;2023-12-20T08:06:31;100478.28;;;5.05;100.00
63088;BME280;49173;43.164;27.786;2023-12-20T08:08:57;100469.97;;;5.16;100.00
63088;BME280;49173;43.164;27.786;2023-12-20T08:11:34;100463.31;;;5.31;100.00
63088;BME280;49173;43.164;27.786;2023-12-20T08:14:10;100468.44;;;5.37;100.00
63088;BME280;49173;43.164;27.786;2023-12-20T08:16:39;100462.00;;;5.42;100.00
63088;BME280;49173;43.164;27.786;2023-12-20T08:19:09;100463.66;;;5.46;100.00
63088;BME280;49173;43.164;27.786;2023-12-20T08:21:35;100454.75;;;5.47;100.00
63088;BME280;49173;43.164;27.786;2023-12-20T08:24:04;100448.56;;;5.47;100.00
63088;BME280;49173;43.164;27.786;2023-12-20T08:26:35;100452.97;;;5.48;100.00
63088;BME280;49173;43.164;27.786;2023-12-20T08:29:07;100441.19;;;5.55;100.00
63088;BME280;49173;43.164;27.786;2023-12-20T08:31:34;100434.81;;;5.61;100.00
63088;BME280;49173;43.164;27.786;2023-12-20T08:34:04;100423.09;;;5.66;100.00
63088;BME280;49173;43.164;27.786;2023-12-20T08:36:33;100429.06;;;5.73;100.00
63088;BME280;49173;43.164;27.786;2023-12-20T08:39:00;100425.41;;;5.75;100.00
63088;BME280;49173;43.164;27.786;2023-12-20T08:41:29;100421.69;;;5.81;100.00
63088;BME280;49173;43.164;27.786;2023-12-20T08:43:58;100422.34;;;5.88;100.00
63088;BME280;49173;43.164;27.786;2023-12-20T08:46:30;100415.09;;;5.93;100.00
63088;BME280;49173;43.164;27.786;2023-12-20T08:48:56;100405.09;;;5.99;100.00
63088;BME280;49173;43.164;27.786;2023-12-20T08:51:26;100409.09;;;6.11;100.00
63088;BME280;49173;43.164;27.786;2023-12-20T08:53:56;100405.22;;;6.20;99.38
63088;BME280;49173;43.164;27.786;2023-12-20T08:56:25;100390.59;;;6.31;99.09
63088;BME280;49173;43.164;27.786;2023-12-20T08:58:57;100395.56;;;6.41;98.53
63088;BME280;49173;43.164;27.786;2023-12-20T09:01:26;100390.59;;;6.55;97.46
63088;BME280;49173;43.164;27.786;2023-12-20T09:03:55;100380.97;;;6.74;96.17
63088;BME280;49173;43.164;27.786;2023-12-20T09:06:24;100369.66;;;6.91;95.42
63088;BME280;49173;43.164;27.786;2023-12-20T09:08:53;100368.25;;;7.03;94.65
63088;BME280;49173;43.164;27.786;2023-12-20T09:11:23;100355.13;;;7.20;93.37
63088;BME280;49173;43.164;27.786;2023-12-20T09:13:49;100352.59;;;7.37;91.78
63088;BME280;49173;43.164;27.786;2023-12-20T09:16:18;100344.81;;;7.53;91.91
63088;BME280;49173;43.164;27.786;2023-12-20T09:18:50;100336.00;;;7.71;89.97
63088;BME280;49173;43.164;27.786;2023-12-20T09:21:26;100332.38;;;7.93;88.33
63088;BME280;49173;43.164;27.786;2023-12-20T09:23:52;100328.03;;;8.11;86.30
63088;BME280;49173;43.164;27.786;2023-12-20T09:26:21;100316.34;;;8.32;86.50
63088;BME280;49173;43.164;27.786;2023-12-20T09:28:50;100312.03;;;8.48;81.08
63088;BME280;49173;43.164;27.786;2023-12-20T09:31:19;100300.78;;;8.61;78.16
63088;BME280;49173;43.164;27.786;2023-12-20T09:33:48;100294.59;;;8.77;77.56
63088;BME280;49173;43.164;27.786;2023-12-20T09:36:18;100293.19;;;8.88;76.02
63088;BME280;49173;43.164;27.786;2023-12-20T09:38:47;100286.53;;;8.96;76.50
63088;BME280;49173;43.164;27.786;2023-12-20T09:41:14;100276.78;;;8.95;79.04
63088;BME280;49173;43.164;27.786;2023-12-20T09:43:44;100280.63;;;8.90;81.83
63088;BME280;49173;43.164;27.786;2023-12-20T09:46:15;100266.09;;;8.76;83.15
63088;BME280;49173;43.164;27.786;2023-12-20T09:48:50;100263.88;;;8.67;84.40
63088;BME280;49173;43.164;27.786;2023-12-20T09:51:17;100260.19;;;8.70;84.82
63088;BME280;49173;43.164;27.786;2023-12-20T09:53:48;100259.31;;;8.69;84.91
63088;BME280;49173;43.164;27.786;2023-12-20T09:56:17;100265.53;;;8.70;85.15
63088;BME280;49173;43.164;27.786;2023-12-20T09:58:46;100253.59;;;8.77;83.79
63088;BME280;49173;43.164;27.786;2023-12-20T10:01:20;100247.84;;;8.85;82.50
63088;BME280;49173;43.164;27.786;2023-12-20T10:03:54;100242.84;;;8.96;81.78
63088;BME280;49173;43.164;27.786;2023-12-20T10:06:21;100235.44;;;9.01;81.95
63088;BME280;49173;43.164;27.786;2023-12-20T10:08:50;100244.19;;;9.04;81.57
63088;BME280;49173;43.164;27.786;2023-12-20T10:11:19;100239.47;;;9.10;81.15
63088;BME280;49173;43.164;27.786;2023-12-20T10:13:51;100232.91;;;9.15;81.29
63088;BME280;49173;43.164;27.786;2023-12-20T10:16:17;100230.66;;;9.25;80.17
63088;BME280;49173;43.164;27.786;2023-12-20T10:18:49;100227.66;;;9.31;78.84
63088;BME280;49173;43.164;27.786;2023-12-20T10:21:18;100216.59;;;9.37;74.83
63088;BME280;49173;43.164;27.786;2023-12-20T10:23:51;100215.81;;;9.52;73.77
63088;BME280;49173;43.164;27.786;2023-12-20T10:26:26;100208.06;;;9.63;72.89
63088;BME280;49173;43.164;27.786;2023-12-20T10:29:08;100203.78;;;9.77;69.53
63088;BME280;49173;43.164;27.786;2023-12-20T10:31:41;100196.69;;;9.91;69.35
63088;BME280;49173;43.164;27.786;2023-12-20T10:34:14;100190.75;;;10.02;69.05
63088;BME280;49173;43.164;27.786;2023-12-20T10:36:43;100183.94;;;10.12;69.12
63088;BME280;49173;43.164;27.786;2023-12-20T10:39:10;100179.63;;;10.26;67.68
63088;BME280;49173;43.164;27.786;2023-12-20T10:41:40;100181.72;;;10.36;65.66
63088;BME280;49173;43.164;27.786;2023-12-20T10:44:11;100182.91;;;10.47;64.56
63088;BME280;49173;43.164;27.786;2023-12-20T10:46:45;100172.50;;;10.56;63.65
63088;BME280;49173;43.164;27.786;2023-12-20T10:49:20;100162.63;;;10.72;62.94
63088;BME280;49173;43.164;27.786;2023-12-20T10:51:50;100165.53;;;10.84;62.77
63088;BME280;49173;43.164;27.786;2023-12-20T10:54:23;100155.38;;;10.89;62.47
63088;BME280;49173;43.164;27.786;2023-12-20T10:56:55;100152.44;;;10.93;64.45
63088;BME280;49173;43.164;27.786;2023-12-20T10:59:27;100148.94;;;10.91;68.83
63088;BME280;49173;43.164;27.786;2023-12-20T11:01:58;100157.88;;;10.92;70.98
63088;BME280;49173;43.164;27.786;2023-12-20T11:04:54;100143.41;;;10.94;68.53
63088;BME280;49173;43.164;27.786;2023-12-20T11:07:33;100140.53;;;10.97;69.29
63088;BME280;49173;43.164;27.786;2023-12-20T11:10:20;100139.41;;;11.02;69.18
63088;BME280;49173;43.164;27.786;2023-12-20T11:12:59;100132.00;;;11.05;67.97
63088;BME280;49173;43.164;27.786;2023-12-20T11:15:31;100130.13;;;11.07;68.32
63088;BME280;49173;43.164;27.786;2023-12-20T11:18:01;100127.34;;;11.09;68.13
63088;BME280;49173;43.164;27.786;2023-12-20T11:20:40;100124.34;;;11.13;66.34
63088;BME280;49173;43.164;27.786;2023-12-20T11:23:08;100117.84;;;11.17;64.93
63088;BME280;49173;43.164;27.786;2023-12-20T11:25:57;100115.38;;;11.28;63.82
63088;BME280;49173;43.164;27.786;2023-12-20T11:28:29;100110.56;;;11.34;64.63
63088;BME280;49173;43.164;27.786;2023-12-20T11:31:01;100104.69;;;11.41;62.06
63088;BME280;49173;43.164;27.786;2023-12-20T11:33:40;100103.66;;;11.44;60.17
63088;BME280;49173;43.164;27.786;2023-12-20T11:36:19;100104.31;;;11.47;59.17
63088;BME280;49173;43.164;27.786;2023-12-20T11:38:57;100092.44;;;11.51;57.78
63088;BME280;49173;43.164;27.786;2023-12-20T11:41:28;100088.41;;;11.59;56.10
63088;BME280;49173;43.164;27.786;2023-12-20T11:44:04;100076.56;;;11.61;55.70
63088;BME280;49173;43.164;27.786;2023-12-20T11:46:34;100080.81;;;11.65;55.08
63088;BME280;49173;43.164;27.786;2023-12-20T11:49:06;100071.56;;;11.69;54.13
63088;BME280;49173;43.164;27.786;2023-12-20T11:51:40;100059.44;;;11.76;53.43
63088;BME280;49173;43.164;27.786;2023-12-20T11:54:09;100063.44;;;11.85;53.15
63088;BME280;49173;43.164;27.786;2023-12-20T11:56:39;100053.31;;;11.89;52.63
63088;BME280;49173;43.164;27.786;2023-12-20T11:59:10;100055.50;;;11.96;52.56
63088;BME280;49173;43.164;27.786;2023-12-20T12:01:40;100050.41;;;12.06;52.51
63088;BME280;49173;43.164;27.786;2023-12-20T12:04:18;100048.47;;;12.08;52.30
63088;BME280;49173;43.164;27.786;2023-12-20T12:06:48;100035.97;;;12.07;52.44
63088;BME280;49173;43.164;27.786;2023-12-20T12:09:17;100034.91;;;12.09;51.88
63088;BME280;49173;43.164;27.786;2023-12-20T12:11:52;100024.03;;;12.11;51.69
63088;BME280;49173;43.164;27.786;2023-12-20T12:14:21;100016.63;;;12.15;51.11
63088;BME280;49173;43.164;27.786;2023-12-20T12:16:54;100014.06;;;12.13;51.00
63088;BME280;49173;43.164;27.786;2023-12-20T12:19:24;100014.06;;;12.13;50.99
63088;BME280;49173;43.164;27.786;2023-12-20T12:22:10;100002.44;;;12.13;50.66
63088;BME280;49173;43.164;27.786;2023-12-20T12:24:43;100013.09;;;12.14;50.31
63088;BME280;49173;43.164;27.786;2023-12-20T12:27:15;100008.47;;;12.16;50.07
63088;BME280;49173;43.164;27.786;2023-12-20T12:30:03;100008.28;;;12.19;50.72
63088;BME280;49173;43.164;27.786;2023-12-20T12:32:52;100002.00;;;12.19;50.34
63088;BME280;49173;43.164;27.786;2023-12-20T12:35:23;100001.69;;;12.23;50.10
63088;BME280;49173;43.164;27.786;2023-12-20T12:37:53;99996.41;;;12.22;51.22
63088;BME280;49173;43.164;27.786;2023-12-20T12:40:20;99985.84;;;12.19;50.21
63088;BME280;49173;43.164;27.786;2023-12-20T12:42:50;99983.72;;;12.24;49.62
63088;BME280;49173;43.164;27.786;2023-12-20T12:45:20;99984.81;;;12.21;50.58
63088;BME280;49173;43.164;27.786;2023-12-20T12:47:59;99975.75;;;12.22;50.72
63088;BME280;49173;43.164;27.786;2023-12-20T12:50:28;99981.38;;;12.19;50.34
63088;BME280;49173;43.164;27.786;2023-12-20T12:53:00;99964.25;;;12.20;50.19
63088;BME280;49173;43.164;27.786;2023-12-20T12:55:34;99970.38;;;12.22;49.77
63088;BME280;49173;43.164;27.786;2023-12-20T12:58:06;99961.91;;;12.28;49.60